AirNav   Everest Fuels
 
 1920 users online  

40MA Lowell General Hospital Heliport
Lowell, Massachusetts, USA

GOING TO LOWELL?


FAA INFORMATION EFFECTIVE 02 JANUARY 2020

Location

FAA Identifier: 40MA
Lat/Long: 42-38-53.6000N 071-20-33.5000W
42-38.893333N 071-20.558333W
42.6482222,-71.3426389
(estimated)
Elevation: 143 ft. / 44 m (estimated)
From city: 2 miles NW of LOWELL, MA
Time zone: UTC -5 (UTC -4 during Daylight Saving Time)
Zip code: 01854

Heliport Operations

Heliport use: Private use. Permission required prior to landing
Activation date: 11/2015
Control tower: no
ARTCC: BOSTON CENTER
FSS: BRIDGEPORT FLIGHT SERVICE STATION
Attendance: UNATNDD
Segmented circle: no

Heliport Communications

WX ASOS at LWM (11 nm NE): PHONE 978-687-8017
WX ASOS at BED (11 nm S): 124.6 (781-274-9733)
WX AWOS-3PT at ASH (11 nm NW): 125.1 (603-578-0473)
WX ASOS at MHT (18 nm N): 119.55 (603-621-1766)
WX ASOS at BVY (19 nm E): PHONE 978-921-5042
WX ASOS at FIT (19 nm W): 135.175 (978-343-9121)

Nearby radio navigation aids

VOR radial/distance  VOR name  Freq  Var
LWMr258/12.2LAWRENCE VOR/DME112.5015W
MHTr190/13.3MANCHESTER VOR/DME114.4015W
BOSr334/23.4BOSTON VOR/DME112.7016W
GDMr093/32.2GARDNER VOR/DME110.6014W
PSMr237/34.5PEASE VOR/DME116.5016W
CONr178/35.8CONCORD VOR/DME112.9015W

Heliport Services

Runway Information

Helipad H1

Dimensions: 44 x 44 ft. / 13 x 13 m
Surface: concrete
Traffic pattern: leftleft

Heliport Ownership and Management from official FAA records

Ownership: Privately-owned
Owner: LOWELL GENERAL HOSPITAL
295 VAMUM AVENUE
LOWELL, MA 01854
Manager: LOWELL GENERAL HOSPITAL
295 VAMUM AVENUE
LOWELL, MA 01854

Additional Remarks

FOR CD CTC BOSTON APCH AT 603-594-5554.

Instrument Procedures

There are no published instrument procedures at 40MA.

Some nearby airports with instrument procedures:

KLWM - Lawrence Municipal Airport (11 nm NE)
KBED - Laurence G Hanscom Field Airport (11 nm S)
KASH - Boire Field Airport (11 nm NW)
6B6 - Minute Man Air Field (14 nm SW)
KMHT - Manchester Airport (18 nm N)
KBVY - Beverly Regional Airport (19 nm E)
KFIT - Fitchburg Municipal Airport (19 nm W)
 
Loc | Ops | Rwys | IFR | FBO | Links
Com | Nav | Svcs | Stats | Notes
Aerial photo
No photo
 
Airport distance calculator
Flying to Lowell General Hospital Heliport? Find the distance to fly.

From to 40MA

Sunrise and sunset
Times for 23-Jan-2020
 Local
(UTC-5)
 Zulu
(UTC)
Morning civil twilight06:3811:38
Sunrise07:0912:09
Sunset16:4621:46
Evening civil twilight17:1622:16

Current date and time
Zulu (UTC)  23-Jan-2020 20:33:56
Local (UTC-5)  23-Jan-2020 15:33:56
 
METAR
KLWM 
10nm NE 
231954Z 20004KT 10SM CLR 06/M09 A3031 RMK AO2 SLP267 T00611094
KASH 
10nm NW 
231956Z 08003KT 10SM CLR 05/M05 A3029 RMK AO2 SLP266 T00501050
KBED 
11nm S 
231951Z 19006KT 10SM OVC250 07/M09 A3030 RMK AO2 SLP276 T00671089
KMHT 
18nm N 
231953Z 18003KT 10SM OVC220 06/M09 A3027 RMK AO2 SLP272 T00561089
KFIT 
19nm W 
231952Z AUTO 00000KT 10SM CLR 07/M10 A3030 RMK AO2 SLP265 T00721100
KBVY 
19nm E 
231953Z 23005KT 10SM CLR 06/M08 A3030 RMK AO2 SLP257 T00611078
TAF
KBED 
11nm S 
231726Z 2318/2418 24004KT P6SM BKN250 FM240100 VRB03KT P6SM BKN250 FM241400 02005KT P6SM SCT200
KMHT 
18nm N 
231720Z 2318/2418 VRB03KT P6SM BKN250
NOTAMs
Click for the latest NOTAMs
NOTAMs are issued by the DoD/FAA and will open in a separate window not controlled by AirNav.

 

 
 

Would you like to see your business listed on this page?

 If your business provides an interesting product or service to pilots, flight crews, aircraft, or users of the Lowell General Hospital Heliport, you should consider listing it here.  To start the listing process, click on the button below
 
Add a business
 

Other Pages about Lowell General Hospital Heliport

Update a link
 
Copyright © AirNav, LLC. All rights reserved. Privacy Policy  Contact